Time;durP1;ratioP1;P1;durP2;ratioP2;P2;SDS_P1;SDS_P2;PMS_P1;PMS_P2;Temp;Humidity;BMP_temperature;BMP_pressure;BME280_temperature;BME280_humidity;BME280_pressure;Samples;Min_cycle;Max_cycle;Signal;HPM_P1;HPM_P2
2023/02/14 00:01:15;;;;;;;32.60;20.65;;;;;;;;;;5089413;28;20025;-72
2023/02/14 00:03:41;;;;;;;31.00;21.17;;;;;;;;;;5053505;28;20152;-70
2023/02/14 00:06:11;;;;;;;30.17;19.67;;;;;;;;;;5069093;28;20607;-71
2023/02/14 00:08:39;;;;;;;33.97;20.92;;;;;;;;;;5048461;28;20036;-71
2023/02/14 00:11:07;;;;;;;31.35;20.58;;;;;;;;;;5089102;28;20032;-71
2023/02/14 00:13:34;;;;;;;31.98;19.83;;;;;;;;;;5089040;28;20016;-71
2023/02/14 00:16:00;;;;;;;35.22;21.63;;;;;;;;;;5072977;28;20028;-71
2023/02/14 00:21:10;;;;;;;35.30;20.30;;;;;;;;;;5049952;28;20036;-71
2023/02/14 00:23:36;;;;;;;31.25;20.73;;;;;;;;;;5068188;28;20048;-71
2023/02/14 00:26:03;;;;;;;29.70;20.27;;;;;;;;;;5069005;28;20380;-71
2023/02/14 00:28:29;;;;;;;34.50;21.35;;;;;;;;;;5052410;28;20395;-70
2023/02/14 00:30:56;;;;;;;32.88;21.15;;;;;;;;;;5051973;28;20037;-70
2023/02/14 00:33:22;;;;;;;32.90;20.80;;;;;;;;;;5053081;28;20406;-70
2023/02/14 00:35:48;;;;;;;32.15;20.05;;;;;;;;;;5053384;28;20025;-70
2023/02/14 00:38:14;;;;;;;35.97;23.05;;;;;;;;;;5059005;28;20025;-70
2023/02/14 00:40:40;;;;;;;34.47;21.95;;;;;;;;;;5089013;28;20150;-70
2023/02/14 00:43:07;;;;;;;34.95;22.05;;;;;;;;;;5088623;28;20034;-71
2023/02/14 00:45:33;;;;;;;32.35;21.63;;;;;;;;;;5056311;28;20035;-70
2023/02/14 00:47:59;;;;;;;32.65;21.02;;;;;;;;;;5052292;28;20025;-70
2023/02/14 00:50:25;;;;;;;34.58;21.27;;;;;;;;;;5051946;28;20087;-70
2023/02/14 00:52:50;;;;;;;32.80;20.65;;;;;;;;;;5078887;22;20040;-75
2023/02/14 00:55:16;;;;;;;33.53;22.13;;;;;;;;;;5073196;28;20414;-74
2023/02/14 00:57:42;;;;;;;36.10;21.30;;;;;;;;;;5072710;28;20028;-75
2023/02/14 01:00:09;;;;;;;32.40;20.05;;;;;;;;;;5072985;28;20032;-74
2023/02/14 01:02:35;;;;;;;32.53;20.85;;;;;;;;;;5073992;28;20021;-75
2023/02/14 01:05:01;;;;;;;33.25;19.60;;;;;;;;;;5070424;28;20055;-75
2023/02/14 01:07:27;;;;;;;30.33;19.65;;;;;;;;;;5072465;28;20025;-74
2023/02/14 01:09:53;;;;;;;36.60;21.30;;;;;;;;;;5072568;28;20033;-75
2023/02/14 01:12:19;;;;;;;39.40;23.40;;;;;;;;;;5072889;28;20021;-74
2023/02/14 01:14:45;;;;;;;36.00;21.38;;;;;;;;;;5073082;28;20029;-75
2023/02/14 01:17:11;;;;;;;34.60;22.40;;;;;;;;;;5070655;28;20025;-74
2023/02/14 01:19:37;;;;;;;33.80;20.83;;;;;;;;;;5070352;28;20028;-73
2023/02/14 01:22:03;;;;;;;36.63;21.92;;;;;;;;;;5072459;28;20028;-74
2023/02/14 01:24:29;;;;;;;32.88;20.88;;;;;;;;;;5072592;28;20025;-74
2023/02/14 01:26:55;;;;;;;35.47;21.95;;;;;;;;;;5071066;28;20031;-73
2023/02/14 01:29:21;;;;;;;31.63;20.35;;;;;;;;;;5071763;28;20016;-74
2023/02/14 01:31:48;;;;;;;36.30;20.35;;;;;;;;;;5071928;28;20447;-74
2023/02/14 01:34:14;;;;;;;32.67;20.90;;;;;;;;;;5072518;28;20016;-73
2023/02/14 01:36:40;;;;;;;32.53;19.83;;;;;;;;;;5072169;28;20020;-73
2023/02/14 01:39:07;;;;;;;32.38;20.92;;;;;;;;;;5071780;28;20116;-74
2023/02/14 01:41:35;;;;;;;33.25;20.27;;;;;;;;;;5072181;28;20091;-74
2023/02/14 01:44:02;;;;;;;30.67;18.55;;;;;;;;;;5071829;28;20110;-75
2023/02/14 01:46:30;;;;;;;35.28;20.55;;;;;;;;;;5072530;28;20111;-74
2023/02/14 01:49:02;;;;;;;29.42;19.60;;;;;;;;;;5071661;28;20024;-74
2023/02/14 01:51:29;;;;;;;32.85;19.17;;;;;;;;;;5072328;28;20028;-73
2023/02/14 01:53:55;;;;;;;35.83;20.85;;;;;;;;;;5070804;28;20047;-74
2023/02/14 01:56:24;;;;;;;30.38;19.40;;;;;;;;;;5072722;28;20032;-74
2023/02/14 01:58:53;;;;;;;34.75;20.55;;;;;;;;;;5071677;28;20031;-74
2023/02/14 02:01:19;;;;;;;34.53;21.33;;;;;;;;;;5072071;28;20029;-74
2023/02/14 02:03:55;;;;;;;36.97;21.42;;;;;;;;;;5072087;28;20025;-74
2023/02/14 02:06:30;;;;;;;31.75;20.38;;;;;;;;;;5071649;28;20033;-74
2023/02/14 02:09:17;;;;;;;36.15;21.15;;;;;;;;;;5061559;28;20036;-74
2023/02/14 02:11:43;;;;;;;32.10;20.70;;;;;;;;;;5071632;28;20031;-74
2023/02/14 02:14:14;;;;;;;30.25;19.52;;;;;;;;;;5071808;28;20013;-74
2023/02/14 02:16:52;;;;;;;36.03;21.50;;;;;;;;;;5071860;28;20020;-74
2023/02/14 02:19:21;;;;;;;32.10;20.42;;;;;;;;;;5069953;28;20020;-74
2023/02/14 02:22:02;;;;;;;29.77;19.73;;;;;;;;;;5071642;28;20020;-73
2023/02/14 02:24:50;;;;;;;34.05;20.13;;;;;;;;;;5070223;28;20223;-74
2023/02/14 02:27:32;;;;;;;29.58;18.73;;;;;;;;;;5070963;28;20021;-74
2023/02/14 02:29:58;;;;;;;28.02;18.92;;;;;;;;;;5071111;28;20066;-74
2023/02/14 02:32:30;;;;;;;27.80;18.00;;;;;;;;;;5071173;28;20028;-74
2023/02/14 02:35:29;;;;;;;26.70;18.15;;;;;;;;;;5071191;28;20036;-74
2023/02/14 02:37:55;;;;;;;28.30;19.02;;;;;;;;;;5035841;28;20494;-74
2023/02/14 02:40:41;;;;;;;27.63;19.10;;;;;;;;;;5070721;28;20059;-74
2023/02/14 02:43:30;;;;;;;31.38;19.77;;;;;;;;;;5070733;28;20033;-74
2023/02/14 02:48:44;;;;;;;30.80;19.73;;;;;;;;;;5061830;28;20075;-75
2023/02/14 02:54:02;;;;;;;30.73;19.98;;;;;;;;;;5071570;28;20067;-73
2023/02/14 02:56:48;;;;;;;28.92;19.23;;;;;;;;;;5069284;28;20029;-74
2023/02/14 02:59:17;;;;;;;30.40;20.27;;;;;;;;;;5070504;28;20059;-73
2023/02/14 03:01:46;;;;;;;30.20;20.20;;;;;;;;;;5069498;28;20017;-74
2023/02/14 03:07:36;;;;;;;27.58;18.77;;;;;;;;;;5033801;28;20037;-73
2023/02/14 03:10:08;;;;;;;29.95;19.35;;;;;;;;;;5031832;28;20021;-74
2023/02/14 03:12:33;;;;;;;29.13;18.52;;;;;;;;;;5062833;28;20117;-74
2023/02/14 03:15:04;;;;;;;31.08;19.80;;;;;;;;;;5071308;28;20505;-75
2023/02/14 03:17:46;;;;;;;29.23;18.10;;;;;;;;;;5070578;28;20533;-74
2023/02/14 03:20:33;;;;;;;28.70;18.88;;;;;;;;;;5070957;28;20166;-74
2023/02/14 03:22:59;;;;;;;29.10;18.08;;;;;;;;;;5070872;28;20108;-74
2023/02/14 03:25:57;;;;;;;25.90;18.58;;;;;;;;;;5070147;28;20036;-74
2023/02/14 03:28:38;;;;;;;19.88;15.73;;;;;;;;;;5033397;28;20053;-75
2023/02/14 03:31:12;;;;;;;21.73;15.47;;;;;;;;;;5070603;28;20033;-74
2023/02/14 03:33:47;;;;;;;20.20;14.43;;;;;;;;;;5070956;28;20052;-73
2023/02/14 03:36:20;;;;;;;18.25;13.50;;;;;;;;;;5071031;28;20021;-74
2023/02/14 03:38:49;;;;;;;18.13;13.38;;;;;;;;;;5065349;28;20509;-73
2023/02/14 03:41:20;;;;;;;16.17;12.30;;;;;;;;;;5070114;28;20044;-73
2023/02/14 03:43:48;;;;;;;14.95;11.60;;;;;;;;;;5061529;28;20031;-73
2023/02/14 03:46:43;;;;;;;15.52;11.82;;;;;;;;;;5070140;28;20048;-74
2023/02/14 03:49:12;;;;;;;14.98;11.45;;;;;;;;;;5052403;28;20078;-74
2023/02/14 03:51:38;;;;;;;18.23;11.05;;;;;;;;;;5069926;28;20028;-76
2023/02/14 03:54:07;;;;;;;13.43;11.25;;;;;;;;;;5069891;28;20044;-74
2023/02/14 03:56:36;;;;;;;14.88;11.65;;;;;;;;;;5068968;28;20029;-74
2023/02/14 03:59:09;;;;;;;16.25;10.45;;;;;;;;;;5069663;28;20033;-74
2023/02/14 04:01:37;;;;;;;14.63;9.13;;;;;;;;;;5073633;28;20040;-75
2023/02/14 04:04:05;;;;;;;14.85;9.05;;;;;;;;;;5073737;28;20040;-74
2023/02/14 04:06:31;;;;;;;13.45;9.15;;;;;;;;;;5073835;28;20028;-73
2023/02/14 04:08:57;;;;;;;14.18;10.23;;;;;;;;;;5072631;28;20029;-73
2023/02/14 04:11:23;;;;;;;14.18;11.20;;;;;;;;;;5073405;28;20032;-73
2023/02/14 04:13:49;;;;;;;14.10;10.40;;;;;;;;;;5064776;28;20036;-73
2023/02/14 04:16:15;;;;;;;14.55;10.88;;;;;;;;;;5074158;28;20497;-73
2023/02/14 04:21:26;;;;;;;14.27;11.15;;;;;;;;;;5073831;28;20093;-73
2023/02/14 04:23:52;;;;;;;16.55;11.60;;;;;;;;;;5073303;28;20024;-72
2023/02/14 04:26:18;;;;;;;17.88;12.27;;;;;;;;;;5073798;28;20024;-73
2023/02/14 04:28:44;;;;;;;19.98;11.73;;;;;;;;;;5072615;28;20032;-73
2023/02/14 04:31:10;;;;;;;17.00;11.88;;;;;;;;;;5073804;28;20078;-73
2023/02/14 04:33:36;;;;;;;14.88;11.65;;;;;;;;;;5073340;28;20094;-73
2023/02/14 04:36:02;;;;;;;18.60;12.60;;;;;;;;;;5073146;28;20021;-74
2023/02/14 04:38:28;;;;;;;18.23;13.45;;;;;;;;;;5072267;28;20090;-73
2023/02/14 04:40:54;;;;;;;17.75;12.88;;;;;;;;;;5071643;28;20037;-73
2023/02/14 04:43:20;;;;;;;19.52;14.88;;;;;;;;;;5073067;28;20025;-73
2023/02/14 04:45:46;;;;;;;18.48;13.02;;;;;;;;;;5072862;28;20032;-73
2023/02/14 04:48:12;;;;;;;19.35;13.98;;;;;;;;;;5067984;28;20387;-74
2023/02/14 04:50:38;;;;;;;19.88;14.18;;;;;;;;;;5060546;28;20016;-73
2023/02/14 04:53:04;;;;;;;23.90;16.52;;;;;;;;;;5072510;28;20082;-73
2023/02/14 04:55:30;;;;;;;23.90;15.68;;;;;;;;;;5071266;28;20036;-73
2023/02/14 04:57:56;;;;;;;26.02;16.30;;;;;;;;;;5071722;28;20024;-73
2023/02/14 05:00:23;;;;;;;23.90;17.38;;;;;;;;;;5072587;28;20032;-74
2023/02/14 05:02:49;;;;;;;23.88;16.55;;;;;;;;;;5069137;28;20116;-73
2023/02/14 05:05:15;;;;;;;23.67;16.42;;;;;;;;;;5072009;28;20364;-74
2023/02/14 05:07:46;;;;;;;25.15;16.88;;;;;;;;;;5071381;28;20046;-73
2023/02/14 05:10:12;;;;;;;;;;;;;;;;;;5052474;28;20025;-73
2023/02/14 05:12:38;;;;;;;18.48;13.40;;;;;;;;;;5060220;28;19992;-74
2023/02/14 05:15:04;;;;;;;20.73;14.05;;;;;;;;;;5072381;28;20044;-74
2023/02/14 05:17:30;;;;;;;20.50;13.32;;;;;;;;;;5068991;28;20534;-74
2023/02/14 05:19:56;;;;;;;21.45;14.63;;;;;;;;;;5072284;28;20104;-75
2023/02/14 05:22:22;;;;;;;26.70;15.15;;;;;;;;;;5072146;28;20060;-75
2023/02/14 05:24:48;;;;;;;23.33;15.32;;;;;;;;;;5072138;28;20028;-74
2023/02/14 05:27:14;;;;;;;19.90;12.90;;;;;;;;;;5071621;28;20028;-74
2023/02/14 05:29:40;;;;;;;20.48;13.73;;;;;;;;;;5072440;28;20024;-74
2023/02/14 05:32:07;;;;;;;16.88;12.60;;;;;;;;;;5071140;28;20021;-74
2023/02/14 05:34:33;;;;;;;23.00;15.10;;;;;;;;;;5071106;28;20146;-75
2023/02/14 05:36:59;;;;;;;23.00;15.40;;;;;;;;;;5072588;28;20052;-75
2023/02/14 05:39:25;;;;;;;24.58;14.73;;;;;;;;;;5071222;28;20081;-74
2023/02/14 05:41:51;;;;;;;20.83;14.45;;;;;;;;;;5073649;28;20235;-75
2023/02/14 05:44:17;;;;;;;21.98;14.57;;;;;;;;;;5073251;28;20021;-74
2023/02/14 05:46:43;;;;;;;18.73;13.27;;;;;;;;;;5071542;28;20028;-74
2023/02/14 05:49:09;;;;;;;18.50;12.82;;;;;;;;;;5070021;28;20025;-72
2023/02/14 05:51:35;;;;;;;17.52;12.95;;;;;;;;;;5072976;28;20021;-74
2023/02/14 05:54:01;;;;;;;20.70;14.25;;;;;;;;;;5070944;28;20024;-75
2023/02/14 05:56:27;;;;;;;20.67;14.43;;;;;;;;;;5072379;28;20055;-75
2023/02/14 05:58:53;;;;;;;23.33;15.45;;;;;;;;;;5070913;28;20029;-74
2023/02/14 06:01:19;;;;;;;25.15;17.40;;;;;;;;;;5071734;28;20028;-74
2023/02/14 06:03:45;;;;;;;27.08;17.80;;;;;;;;;;5070922;28;20035;-75
2023/02/14 06:06:11;;;;;;;28.55;19.52;;;;;;;;;;5071009;28;20020;-75
2023/02/14 06:08:37;;;;;;;28.70;18.42;;;;;;;;;;5070893;28;20394;-74
2023/02/14 06:11:03;;;;;;;27.95;19.60;;;;;;;;;;5071745;28;20025;-74
2023/02/14 06:13:29;;;;;;;31.05;20.73;;;;;;;;;;5071376;28;20031;-74
2023/02/14 06:15:55;;;;;;;29.13;20.30;;;;;;;;;;5070138;28;20495;-75
2023/02/14 06:18:21;;;;;;;31.23;20.42;;;;;;;;;;5068476;28;20047;-75
2023/02/14 06:20:47;;;;;;;30.83;20.00;;;;;;;;;;5071265;28;20024;-74
2023/02/14 06:23:13;;;;;;;30.05;21.38;;;;;;;;;;5070660;28;20035;-75
2023/02/14 06:25:39;;;;;;;36.03;21.95;;;;;;;;;;5071304;28;20358;-74
2023/02/14 06:28:05;;;;;;;26.92;18.92;;;;;;;;;;5070396;28;20025;-74
2023/02/14 06:30:31;;;;;;;34.15;22.55;;;;;;;;;;5071147;28;20021;-74
2023/02/14 06:32:57;;;;;;;34.88;22.00;;;;;;;;;;5069378;28;20020;-74
2023/02/14 06:35:23;;;;;;;35.35;23.23;;;;;;;;;;5070911;28;20036;-74
2023/02/14 06:37:49;;;;;;;38.15;23.10;;;;;;;;;;5070111;28;20040;-74
2023/02/14 06:40:15;;;;;;;32.88;21.27;;;;;;;;;;5071046;28;20048;-74
2023/02/14 06:42:42;;;;;;;35.17;22.30;;;;;;;;;;5070646;28;20021;-74
2023/02/14 06:45:08;;;;;;;31.55;20.83;;;;;;;;;;5071175;28;20029;-75
2023/02/14 06:47:34;;;;;;;33.08;21.35;;;;;;;;;;5067660;28;20039;-75
2023/02/14 06:50:00;;;;;;;31.52;21.88;;;;;;;;;;5069754;28;20083;-73
2023/02/14 06:52:26;;;;;;;34.97;23.25;;;;;;;;;;5074199;22;20072;-70
2023/02/14 06:54:52;;;;;;;35.63;23.30;;;;;;;;;;5049615;28;20060;-70
2023/02/14 06:57:18;;;;;;;38.60;24.88;;;;;;;;;;5047739;28;20083;-69
2023/02/14 06:59:44;;;;;;;43.95;26.73;;;;;;;;;;5049808;28;20029;-69
2023/02/14 07:02:11;;;;;;;35.60;24.85;;;;;;;;;;5048294;28;20368;-68
2023/02/14 07:04:37;;;;;;;36.72;25.02;;;;;;;;;;5048247;28;20048;-71
2023/02/14 07:07:03;;;;;;;34.47;24.75;;;;;;;;;;5041142;28;20546;-70
2023/02/14 07:09:29;;;;;;;38.80;23.42;;;;;;;;;;5049608;28;20482;-70
2023/02/14 07:11:55;;;;;;;32.22;21.30;;;;;;;;;;5050051;28;20029;-72
2023/02/14 07:14:21;;;;;;;27.55;18.10;;;;;;;;;;5050302;28;20032;-71
2023/02/14 07:16:47;;;;;;;29.42;19.58;;;;;;;;;;5049181;28;20377;-70
2023/02/14 07:19:13;;;;;;;28.45;18.75;;;;;;;;;;5049797;28;20280;-70
2023/02/14 07:21:39;;;;;;;34.72;19.70;;;;;;;;;;5050607;28;20551;-72
2023/02/14 07:24:05;;;;;;;29.85;19.23;;;;;;;;;;5057894;28;20047;-70
2023/02/14 07:26:31;;;;;;;29.30;19.50;;;;;;;;;;5061424;28;20108;-70
2023/02/14 07:28:58;;;;;;;31.77;20.40;;;;;;;;;;5061150;28;20025;-70
2023/02/14 07:31:24;;;;;;;36.10;21.23;;;;;;;;;;5056495;28;20017;-69
2023/02/14 07:33:50;;;;;;;31.25;21.70;;;;;;;;;;5052108;28;20025;-69
2023/02/14 07:36:16;;;;;;;31.23;20.17;;;;;;;;;;5054477;28;20028;-71
2023/02/14 07:38:42;;;;;;;28.13;18.75;;;;;;;;;;5053345;28;20028;-70
2023/02/14 07:41:08;;;;;;;35.03;21.60;;;;;;;;;;5054187;28;20025;-69
2023/02/14 07:43:34;;;;;;;30.63;19.58;;;;;;;;;;5054447;28;20585;-71
2023/02/14 07:46:01;;;;;;;29.38;19.33;;;;;;;;;;5053561;28;20486;-70
2023/02/14 07:48:27;;;;;;;26.67;18.50;;;;;;;;;;5052928;28;20033;-70
2023/02/14 07:50:56;;;;;;;30.30;20.48;;;;;;;;;;5053860;28;20494;-69
2023/02/14 07:53:22;;;;;;;29.42;18.55;;;;;;;;;;5053550;28;20025;-70
2023/02/14 07:55:49;;;;;;;32.70;19.95;;;;;;;;;;5053408;28;20063;-68
2023/02/14 07:58:15;;;;;;;32.03;19.85;;;;;;;;;;5052376;28;20029;-71
2023/02/14 08:00:41;;;;;;;24.50;16.55;;;;;;;;;;5053212;28;20033;-71
2023/02/14 08:03:07;;;;;;;21.88;14.93;;;;;;;;;;5053334;28;20035;-70
2023/02/14 08:05:34;;;;;;;23.92;15.95;;;;;;;;;;5053182;28;20406;-69
2023/02/14 08:08:00;;;;;;;23.92;16.25;;;;;;;;;;5052415;28;20021;-70
2023/02/14 08:10:27;;;;;;;23.48;16.70;;;;;;;;;;5053283;28;20033;-73
2023/02/14 08:12:59;;;;;;;23.30;16.65;;;;;;;;;;5052941;28;20479;-74
2023/02/14 08:18:13;;;;;;;22.83;15.40;;;;;;;;;;5051017;28;20431;-73
2023/02/14 08:20:39;;;;;;;16.08;11.85;;;;;;;;;;5050802;28;20479;-73
2023/02/14 08:23:05;;;;;;;16.77;11.85;;;;;;;;;;5043953;28;20021;-71
2023/02/14 08:25:31;;;;;;;16.95;11.68;;;;;;;;;;5047920;28;20112;-73
2023/02/14 08:27:58;;;;;;;20.88;13.80;;;;;;;;;;5050660;28;20049;-76
2023/02/14 08:30:24;;;;;;;19.38;13.55;;;;;;;;;;5051721;28;20025;-74
2023/02/14 08:32:50;;;;;;;18.38;13.40;;;;;;;;;;5052771;28;20113;-74
2023/02/14 08:35:16;;;;;;;18.90;14.25;;;;;;;;;;5051084;28;20108;-76
2023/02/14 08:37:41;;;;;;;22.30;15.10;;;;;;;;;;5052007;28;20056;-74
2023/02/14 08:40:08;;;;;;;19.98;14.70;;;;;;;;;;5049651;28;20031;-74
2023/02/14 08:42:34;;;;;;;24.58;16.45;;;;;;;;;;5052324;28;20028;-74
2023/02/14 08:45:00;;;;;;;25.30;15.07;;;;;;;;;;5043854;28;20036;-74
2023/02/14 08:47:26;;;;;;;18.60;13.63;;;;;;;;;;5051873;28;20025;-74
2023/02/14 08:49:52;;;;;;;24.08;15.55;;;;;;;;;;5045762;28;20029;-74
2023/02/14 08:52:18;;;;;;;23.63;14.95;;;;;;;;;;5052104;28;20498;-75
2023/02/14 08:54:44;;;;;;;19.13;12.88;;;;;;;;;;5050819;28;20017;-73
2023/02/14 08:57:10;;;;;;;22.35;15.52;;;;;;;;;;5052021;28;20471;-75
2023/02/14 08:59:36;;;;;;;30.08;15.68;;;;;;;;;;5052709;28;20074;-75
2023/02/14 09:02:02;;;;;;;19.13;14.27;;;;;;;;;;5052346;28;20021;-75
2023/02/14 09:04:28;;;;;;;19.65;12.82;;;;;;;;;;5050191;28;20036;-74
2023/02/14 09:06:54;;;;;;;21.45;14.65;;;;;;;;;;5052168;28;20036;-71
2023/02/14 09:09:20;;;;;;;19.10;13.63;;;;;;;;;;5051748;28;20025;-75
2023/02/14 09:11:46;;;;;;;22.65;14.48;;;;;;;;;;5052348;28;20029;-74
2023/02/14 09:14:12;;;;;;;19.83;14.38;;;;;;;;;;5054621;28;20167;-74
2023/02/14 09:16:38;;;;;;;20.95;13.23;;;;;;;;;;5058498;28;20021;-70
2023/02/14 09:19:04;;;;;;;16.60;12.25;;;;;;;;;;5051969;28;20052;-72
2023/02/14 09:21:30;;;;;;;16.80;12.32;;;;;;;;;;5054490;28;20053;-72
2023/02/14 09:23:56;;;;;;;20.80;11.82;;;;;;;;;;5050911;28;20025;-71
2023/02/14 09:26:22;;;;;;;16.58;12.02;;;;;;;;;;5050367;28;20029;-72
2023/02/14 09:28:48;;;;;;;18.02;12.35;;;;;;;;;;5049594;28;20124;-72
2023/02/14 09:31:14;;;;;;;16.60;11.43;;;;;;;;;;5050495;28;20025;-72
2023/02/14 09:39:10;;;;;;;22.65;14.57;;;;;;;;;;5053776;28;20124;-71
2023/02/14 09:41:45;;;;;;;21.33;13.05;;;;;;;;;;5065533;28;20036;-71
2023/02/14 09:44:16;;;;;;;23.27;13.55;;;;;;;;;;5049178;28;20033;-72
2023/02/14 09:46:45;;;;;;;19.33;11.70;;;;;;;;;;5050268;28;20120;-70
2023/02/14 09:49:15;;;;;;;14.30;9.65;;;;;;;;;;5050542;28;20470;-71
2023/02/14 09:51:45;;;;;;;13.93;10.15;;;;;;;;;;5046401;28;20271;-72
2023/02/14 09:54:12;;;;;;;19.77;11.98;;;;;;;;;;5047543;28;20029;-72
2023/02/14 09:56:53;;;;;;;17.27;11.88;;;;;;;;;;5048600;28;20036;-72
2023/02/14 09:59:22;;;;;;;15.65;10.80;;;;;;;;;;5050556;28;20025;-73
2023/02/14 10:02:00;;;;;;;18.52;12.18;;;;;;;;;;5051831;28;20078;-72
2023/02/14 10:04:29;;;;;;;20.65;11.23;;;;;;;;;;5051809;28;20059;-73
2023/02/14 10:06:58;;;;;;;18.92;13.30;;;;;;;;;;5051429;28;20096;-73
2023/02/14 10:09:30;;;;;;;17.90;11.95;;;;;;;;;;5049803;28;20049;-74
2023/02/14 10:11:58;;;;;;;18.40;11.80;;;;;;;;;;5051174;28;20443;-71
2023/02/14 10:14:26;;;;;;;15.13;11.05;;;;;;;;;;5051549;28;20100;-71
2023/02/14 10:16:58;;;;;;;17.17;12.02;;;;;;;;;;5051243;28;20395;-73
2023/02/14 10:19:36;;;;;;;19.90;13.35;;;;;;;;;;5050837;28;20447;-69
2023/02/14 10:22:14;;;;;;;17.35;12.10;;;;;;;;;;5051004;28;20494;-71
2023/02/14 10:24:44;;;;;;;17.90;12.27;;;;;;;;;;5051090;28;20108;-71
2023/02/14 10:27:34;;;;;;;21.08;11.88;;;;;;;;;;5050532;28;20031;-71
2023/02/14 10:30:01;;;;;;;20.05;12.88;;;;;;;;;;5042945;28;20029;-71
2023/02/14 10:32:32;;;;;;;18.85;12.43;;;;;;;;;;5050903;28;20024;-69
2023/02/14 10:35:01;;;;;;;18.30;11.23;;;;;;;;;;5051061;28;20036;-71
2023/02/14 10:37:36;;;;;;;19.08;11.07;;;;;;;;;;5049969;28;20041;-72
2023/02/14 10:40:09;;;;;;;17.17;11.43;;;;;;;;;;5050815;28;20035;-71
2023/02/14 10:42:37;;;;;;;16.67;12.10;;;;;;;;;;5050717;28;20021;-72
2023/02/14 10:45:22;;;;;;;15.55;10.48;;;;;;;;;;5050842;28;20536;-70
2023/02/14 10:47:54;;;;;;;16.77;11.98;;;;;;;;;;5050364;28;20027;-72
2023/02/14 10:50:23;;;;;;;17.55;11.90;;;;;;;;;;5051122;28;20475;-71
2023/02/14 10:52:57;;;;;;;17.27;11.55;;;;;;;;;;5050424;28;20523;-72
2023/02/14 10:55:33;;;;;;;20.33;11.70;;;;;;;;;;5050663;28;20507;-72
2023/02/14 10:58:01;;;;;;;18.13;12.20;;;;;;;;;;5049969;28;20025;-73
2023/02/14 11:00:32;;;;;;;15.63;11.95;;;;;;;;;;5050736;28;20086;-75
2023/02/14 11:02:58;;;;;;;;;;;;;;;;;;5050753;28;20080;-73
2023/02/14 11:05:27;;;;;;;17.35;12.10;;;;;;;;;;5050720;28;19912;-71
2023/02/14 11:07:55;;;;;;;15.52;11.15;;;;;;;;;;5049079;28;20642;-71
2023/02/14 11:10:23;;;;;;;17.73;12.02;;;;;;;;;;5050549;28;20017;-72
2023/02/14 11:12:49;;;;;;;14.35;10.95;;;;;;;;;;5050292;28;20502;-72
2023/02/14 11:15:19;;;;;;;16.05;11.18;;;;;;;;;;5048928;28;20025;-72
2023/02/14 11:17:45;;;;;;;17.67;11.80;;;;;;;;;;5049657;28;20025;-69
2023/02/14 11:20:29;;;;;;;13.55;10.18;;;;;;;;;;5050284;28;20071;-71
2023/02/14 11:22:55;;;;;;;16.13;11.40;;;;;;;;;;5050225;28;20482;-71
2023/02/14 11:25:25;;;;;;;15.25;10.63;;;;;;;;;;5050501;28;20061;-72
2023/02/14 11:27:58;;;;;;;18.20;11.10;;;;;;;;;;5049843;28;20021;-70
2023/02/14 11:30:31;;;;;;;18.55;10.88;;;;;;;;;;5050559;28;20021;-71
2023/02/14 11:32:57;;;;;;;25.13;12.10;;;;;;;;;;5050372;28;20025;-74
2023/02/14 11:35:26;;;;;;;18.90;10.65;;;;;;;;;;5049542;28;20032;-72
2023/02/14 11:37:53;;;;;;;19.90;11.02;;;;;;;;;;5048017;28;20473;-71
2023/02/14 11:40:38;;;;;;;13.88;9.93;;;;;;;;;;5048620;28;20040;-71
2023/02/14 11:43:11;;;;;;;13.32;10.02;;;;;;;;;;5048902;28;20033;-71
2023/02/14 11:45:39;;;;;;;14.63;10.40;;;;;;;;;;5049965;28;20031;-73
2023/02/14 11:48:08;;;;;;;16.90;11.43;;;;;;;;;;5049073;28;20023;-71
2023/02/14 11:50:35;;;;;;;18.65;10.80;;;;;;;;;;5049500;28;20172;-70
2023/02/14 11:53:02;;;;;;;15.25;10.48;;;;;;;;;;5049805;28;20051;-71
2023/02/14 11:55:29;;;;;;;13.70;9.90;;;;;;;;;;5049512;28;20070;-72
2023/02/14 11:57:56;;;;;;;14.75;10.20;;;;;;;;;;5049077;28;20021;-73
2023/02/14 12:00:25;;;;;;;15.63;9.90;;;;;;;;;;5049832;28;20090;-70
2023/02/14 12:02:52;;;;;;;13.10;10.35;;;;;;;;;;5047763;28;20061;-72
2023/02/14 12:05:18;;;;;;;14.43;9.50;;;;;;;;;;5049816;28;20563;-71
2023/02/14 12:07:45;;;;;;;13.75;9.13;;;;;;;;;;5047813;28;20088;-74
2023/02/14 12:10:14;;;;;;;13.98;9.07;;;;;;;;;;5049130;28;20013;-71
2023/02/14 12:13:01;;;;;;;14.00;9.27;;;;;;;;;;5048356;28;20390;-69
2023/02/14 12:15:29;;;;;;;13.75;9.93;;;;;;;;;;5047917;28;20056;-71
2023/02/14 12:18:14;;;;;;;11.68;8.40;;;;;;;;;;5046888;28;20025;-71
2023/02/14 12:20:58;;;;;;;14.27;9.20;;;;;;;;;;5048745;28;20099;-71
2023/02/14 12:23:28;;;;;;;11.60;8.80;;;;;;;;;;5051446;28;20069;-72
2023/02/14 12:26:04;;;;;;;12.10;9.33;;;;;;;;;;5051340;28;20103;-71
2023/02/14 12:28:39;;;;;;;14.35;9.57;;;;;;;;;;5050819;28;20037;-69
2023/02/14 12:31:10;;;;;;;15.75;11.15;;;;;;;;;;5052754;28;20119;-70
2023/02/14 12:33:38;;;;;;;15.63;10.80;;;;;;;;;;5053015;28;20110;-73
2023/02/14 12:36:07;;;;;;;17.50;12.50;;;;;;;;;;5053070;28;20043;-72
2023/02/14 12:38:48;;;;;;;14.85;10.45;;;;;;;;;;5052169;28;20051;-71
2023/02/14 12:41:20;;;;;;;16.67;12.30;;;;;;;;;;5053019;28;20029;-73
2023/02/14 12:43:54;;;;;;;17.63;12.10;;;;;;;;;;5052590;28;20487;-72
2023/02/14 12:46:22;;;;;;;17.67;12.23;;;;;;;;;;5057981;28;20055;-70
2023/02/14 12:48:54;;;;;;;17.60;11.73;;;;;;;;;;5059209;28;20025;-72
2023/02/14 12:51:26;;;;;;;22.85;10.90;;;;;;;;;;5058915;28;20025;-71
2023/02/14 12:53:55;;;;;;;17.60;11.30;;;;;;;;;;5067016;23;20045;-72
2023/02/14 12:56:30;;;;;;;17.52;11.20;;;;;;;;;;5052740;28;20037;-73
2023/02/14 12:59:15;;;;;;;22.55;13.05;;;;;;;;;;5052178;28;20050;-75
2023/02/14 13:02:00;;;;;;;26.13;13.45;;;;;;;;;;5036284;28;20028;-75
2023/02/14 13:04:32;;;;;;;17.95;12.98;;;;;;;;;;5032614;28;20035;-77
2023/02/14 13:06:57;;;;;;;19.90;12.85;;;;;;;;;;5056727;28;20033;-74
2023/02/14 13:09:27;;;;;;;17.35;12.70;;;;;;;;;;5057020;28;20075;-75
2023/02/14 13:11:56;;;;;;;18.88;13.55;;;;;;;;;;5053350;28;20021;-75
2023/02/14 13:14:21;;;;;;;17.55;12.32;;;;;;;;;;5052406;28;20029;-75
2023/02/14 13:16:51;;;;;;;16.58;12.68;;;;;;;;;;5053048;28;20429;-75
2023/02/14 13:19:17;;;;;;;16.27;12.20;;;;;;;;;;5034807;28;20463;-74
2023/02/14 13:21:43;;;;;;;18.38;11.80;;;;;;;;;;5053026;28;20044;-76
2023/02/14 13:24:28;;;;;;;20.15;13.20;;;;;;;;;;5052094;28;20027;-76
2023/02/14 13:27:01;;;;;;;22.27;13.27;;;;;;;;;;5052117;28;20347;-75
2023/02/14 13:29:31;;;;;;;20.25;13.25;;;;;;;;;;5033754;28;20477;-75
2023/02/14 13:32:00;;;;;;;17.77;12.45;;;;;;;;;;5033804;28;20040;-75
2023/02/14 13:34:32;;;;;;;22.33;12.93;;;;;;;;;;5052225;28;20048;-76
2023/02/14 13:37:00;;;;;;;24.20;12.60;;;;;;;;;;5052025;28;20025;-74
2023/02/14 13:39:46;;;;;;;19.58;12.52;;;;;;;;;;5034105;28;20087;-76
2023/02/14 13:42:13;;;;;;;14.93;12.05;;;;;;;;;;5051664;28;20067;-76
2023/02/14 13:44:43;;;;;;;17.23;12.65;;;;;;;;;;5024919;28;20487;-75
2023/02/14 13:47:16;;;;;;;16.42;11.77;;;;;;;;;;5031534;28;20022;-75
2023/02/14 13:50:04;;;;;;;15.45;11.50;;;;;;;;;;5031768;28;20468;-76
2023/02/14 13:52:39;;;;;;;17.70;11.77;;;;;;;;;;5031722;28;20033;-75
2023/02/14 13:55:25;;;;;;;18.55;11.77;;;;;;;;;;5032060;28;20025;-76
2023/02/14 13:58:01;;;;;;;19.63;12.40;;;;;;;;;;5013531;28;20072;-76
2023/02/14 14:00:41;;;;;;;19.15;12.25;;;;;;;;;;5013849;28;20029;-76
2023/02/14 14:03:12;;;;;;;20.55;11.30;;;;;;;;;;5027767;28;20041;-76
2023/02/14 14:05:56;;;;;;;17.08;11.75;;;;;;;;;;5043716;28;20025;-76
2023/02/14 14:08:22;;;;;;;18.52;11.05;;;;;;;;;;5032699;28;20108;-76
2023/02/14 14:10:52;;;;;;;16.15;11.82;;;;;;;;;;5051015;28;20108;-76
2023/02/14 14:13:37;;;;;;;14.32;9.93;;;;;;;;;;5051102;28;20499;-75
2023/02/14 14:16:22;;;;;;;13.98;9.90;;;;;;;;;;5050829;28;20491;-75
2023/02/14 14:18:48;;;;;;;16.63;10.75;;;;;;;;;;5050231;28;20044;-76
2023/02/14 14:21:24;;;;;;;14.52;10.30;;;;;;;;;;5046281;28;20028;-76
2023/02/14 14:24:08;;;;;;;14.35;10.02;;;;;;;;;;5041620;28;20029;-76
2023/02/14 14:26:40;;;;;;;16.60;10.82;;;;;;;;;;5041068;28;20516;-76
2023/02/14 14:29:10;;;;;;;16.95;10.85;;;;;;;;;;5047760;28;20058;-76
2023/02/14 14:31:36;;;;;;;17.50;11.98;;;;;;;;;;5031134;28;20148;-77
2023/02/14 14:34:02;;;;;;;19.20;12.23;;;;;;;;;;5045739;28;20017;-76
2023/02/14 14:36:28;;;;;;;19.52;13.35;;;;;;;;;;5049428;28;20033;-76
2023/02/14 14:38:54;;;;;;;20.95;13.77;;;;;;;;;;5048411;28;20017;-76
2023/02/14 14:41:27;;;;;;;23.15;16.08;;;;;;;;;;5023965;28;20029;-76
2023/02/14 14:43:54;;;;;;;23.92;17.13;;;;;;;;;;5031462;28;20029;-75
2023/02/14 14:46:22;;;;;;;22.40;16.30;;;;;;;;;;5030656;28;20030;-76
2023/02/14 14:48:50;;;;;;;27.27;18.23;;;;;;;;;;5035549;28;20033;-76
2023/02/14 14:51:19;;;;;;;29.38;19.33;;;;;;;;;;5043781;28;20031;-77
2023/02/14 14:53:46;;;;;;;26.80;19.70;;;;;;;;;;5050230;28;20052;-76